createdAt,value
2018-12-04T00:02:27.680Z,32.24
2018-12-04T00:04:56.612Z,32.38
2018-12-04T00:07:25.644Z,32.14
2018-12-04T00:09:54.747Z,31.97
2018-12-04T00:12:23.852Z,32.48
2018-12-04T00:14:52.943Z,32.84
2018-12-04T00:17:21.923Z,32.44
2018-12-04T00:19:51.140Z,32.60
2018-12-04T00:22:20.196Z,32.31
2018-12-04T00:24:49.200Z,32.28
2018-12-04T00:27:18.336Z,32.95
2018-12-04T00:29:47.303Z,32.92
2018-12-04T00:32:16.396Z,32.86
2018-12-04T00:34:45.420Z,32.83
2018-12-04T00:37:14.492Z,32.72
2018-12-04T00:39:43.497Z,32.88
2018-12-04T00:42:12.513Z,33.33
2018-12-04T00:44:41.500Z,32.97
2018-12-04T00:47:10.571Z,33.35
2018-12-04T00:49:39.573Z,33.19
2018-12-04T00:52:08.664Z,33.29
2018-12-04T00:54:37.688Z,33.64
2018-12-04T00:57:06.672Z,33.85
2018-12-04T00:59:35.700Z,33.89
2018-12-04T01:02:04.760Z,33.70
2018-12-04T01:04:34.431Z,33.27
2018-12-04T01:07:03.653Z,33.08
2018-12-04T01:09:32.807Z,33.48
2018-12-04T01:12:01.818Z,32.96
2018-12-04T01:14:30.851Z,33.06
2018-12-04T01:16:59.828Z,33.49
2018-12-04T01:19:28.839Z,33.32
2018-12-04T01:21:57.916Z,33.21
2018-12-04T01:24:26.916Z,33.09
2018-12-04T01:26:56.008Z,33.45
2018-12-04T01:29:25.126Z,33.35
2018-12-04T01:31:54.132Z,32.86
2018-12-04T01:34:23.125Z,33.41
2018-12-04T01:36:52.114Z,33.06
2018-12-04T01:39:21.112Z,33.13
2018-12-04T01:41:50.200Z,32.85
2018-12-04T01:44:19.304Z,33.09
2018-12-04T01:46:48.281Z,32.70
2018-12-04T01:49:17.405Z,32.81
2018-12-04T01:51:46.327Z,32.71
2018-12-04T01:54:15.356Z,32.90
2018-12-04T01:56:44.344Z,33.64
2018-12-04T01:59:13.354Z,33.38
2018-12-04T02:01:42.348Z,33.40
2018-12-04T02:04:11.360Z,32.79
2018-12-04T02:06:40.456Z,33.01
2018-12-04T02:09:09.520Z,32.88
2018-12-04T02:11:38.547Z,33.07
2018-12-04T02:14:07.536Z,32.92
2018-12-04T02:16:36.636Z,33.03
2018-12-04T02:19:05.629Z,33.38
2018-12-04T02:21:34.600Z,32.76
2018-12-04T02:24:03.691Z,32.90
2018-12-04T02:26:32.704Z,32.90
2018-12-04T02:29:01.694Z,32.64
2018-12-04T02:31:30.700Z,32.48
2018-12-04T02:33:59.791Z,32.49
2018-12-04T02:36:28.896Z,32.71
2018-12-04T02:38:57.890Z,32.91
2018-12-04T02:41:26.890Z,32.91
2018-12-04T02:43:55.821Z,32.84
2018-12-04T02:46:24.817Z,32.46
2018-12-04T02:48:53.908Z,32.42
2018-12-04T02:51:22.947Z,32.14
2018-12-04T02:53:52.096Z,32.87
2018-12-04T02:56:21.051Z,32.88
2018-12-04T02:58:50.436Z,32.91
2018-12-04T03:01:19.456Z,32.50
2018-12-04T03:03:48.486Z,32.66
2018-12-04T03:06:17.428Z,32.73
2018-12-04T03:08:47.323Z,32.30
2018-12-04T03:11:16.347Z,32.48
2018-12-04T03:13:45.344Z,32.96
2018-12-04T03:16:14.319Z,33.15
2018-12-04T03:18:43.378Z,33.37
2018-12-04T03:21:12.416Z,33.33
2018-12-04T03:23:41.400Z,33.34
2018-12-04T03:26:10.396Z,33.83
2018-12-04T03:28:39.386Z,33.76
2018-12-04T03:31:08.394Z,33.34
2018-12-04T03:33:39.637Z,33.01
2018-12-04T03:36:08.643Z,32.24
2018-12-04T03:38:37.626Z,32.32
2018-12-04T03:41:06.832Z,32.64
2018-12-04T03:43:35.821Z,32.13
2018-12-04T03:46:04.912Z,32.82
2018-12-04T03:48:33.906Z,33.00
2018-12-04T03:51:03.047Z,33.33
2018-12-04T03:53:31.989Z,33.05
2018-12-04T03:56:01.051Z,32.25
2018-12-04T03:58:30.072Z,32.43
2018-12-04T04:00:59.300Z,32.40
2018-12-04T04:03:28.300Z,32.03
2018-12-04T04:05:57.287Z,32.23
2018-12-04T04:08:26.383Z,32.94
2018-12-04T04:10:55.537Z,33.24
2018-12-04T04:13:24.688Z,32.47
2018-12-04T04:15:53.780Z,32.00
2018-12-04T04:18:22.779Z,31.93
2018-12-04T04:20:51.953Z,32.47
2018-12-04T04:23:20.955Z,32.27
2018-12-04T04:25:49.965Z,32.04
2018-12-04T04:28:18.923Z,32.99
2018-12-04T04:30:47.930Z,32.84
2018-12-04T04:33:16.918Z,32.94
2018-12-04T04:35:45.720Z,33.54
2018-12-04T04:38:14.499Z,33.28
2018-12-04T04:40:43.520Z,33.22
2018-12-04T04:43:12.503Z,33.20
2018-12-04T04:45:41.948Z,33.14
2018-12-04T04:48:11.312Z,33.13
2018-12-04T04:50:40.334Z,33.03
2018-12-04T04:53:09.472Z,31.93
2018-12-04T04:55:38.516Z,32.45
2018-12-04T04:58:07.543Z,32.45
2018-12-04T05:00:36.626Z,32.36
2018-12-04T05:03:05.693Z,32.63
2018-12-04T05:05:39.704Z,32.75
2018-12-04T05:08:08.700Z,33.23
2018-12-04T05:10:37.702Z,32.97
2018-12-04T05:13:06.688Z,33.19
2018-12-04T05:15:35.657Z,32.28
2018-12-04T05:18:04.716Z,32.25
2018-12-04T05:20:33.819Z,31.40
2018-12-04T05:23:02.835Z,31.17
2018-12-04T05:25:31.822Z,30.87
2018-12-04T05:28:00.757Z,30.02
2018-12-04T05:30:29.928Z,29.66
2018-12-04T05:32:58.911Z,30.37
2018-12-04T05:35:27.929Z,29.83
2018-12-04T05:37:56.930Z,30.00
2018-12-04T05:40:26.012Z,30.29
2018-12-04T05:42:54.996Z,29.82
2018-12-04T05:45:24.021Z,29.78
2018-12-04T05:47:53.104Z,29.59
2018-12-04T05:50:22.122Z,29.03
2018-12-04T05:53:02.186Z,29.87
2018-12-04T05:55:31.287Z,29.96
2018-12-04T05:58:00.248Z,30.03
2018-12-04T06:00:29.384Z,29.60
2018-12-04T06:02:58.484Z,29.58
2018-12-04T06:05:27.543Z,29.70
2018-12-04T06:07:56.631Z,30.32
2018-12-04T06:10:25.825Z,30.39
2018-12-04T06:12:54.827Z,30.09
2018-12-04T06:15:23.832Z,30.24
2018-12-04T06:17:52.812Z,30.47
2018-12-04T06:20:21.564Z,30.76
2018-12-04T06:22:50.339Z,30.57
2018-12-04T06:25:19.120Z,30.63
2018-12-04T06:27:47.865Z,30.43
2018-12-04T06:30:16.790Z,30.66
2018-12-04T06:32:45.654Z,29.85
2018-12-04T06:35:14.514Z,29.85
2018-12-04T06:37:43.320Z,29.89
2018-12-04T06:40:12.068Z,30.47
2018-12-04T06:42:40.923Z,30.62
2018-12-04T06:45:09.736Z,30.62
2018-12-04T06:47:38.628Z,30.22
2018-12-04T06:50:09.761Z,30.53
2018-12-04T06:52:38.634Z,30.14
2018-12-04T06:55:08.283Z,30.46
2018-12-04T06:57:37.489Z,30.59
2018-12-04T07:00:07.579Z,30.07
2018-12-04T07:02:36.592Z,30.48
2018-12-04T07:05:06.190Z,29.95
2018-12-04T07:07:35.317Z,30.43
2018-12-04T07:10:04.725Z,30.46
2018-12-04T07:12:33.768Z,30.67
2018-12-04T07:15:03.323Z,30.12
2018-12-04T07:17:32.436Z,30.47
2018-12-04T07:20:01.550Z,30.07
2018-12-04T07:22:30.712Z,30.62
2018-12-04T07:24:59.800Z,29.95
2018-12-04T07:27:28.917Z,30.32
2018-12-04T07:29:57.958Z,29.94
2018-12-04T07:32:27.152Z,30.10
2018-12-04T07:34:56.246Z,30.29
2018-12-04T07:37:25.284Z,29.93
2018-12-04T07:39:54.404Z,29.89
2018-12-04T07:42:23.384Z,30.21
2018-12-04T07:44:52.500Z,30.24
2018-12-04T07:47:21.279Z,29.95
2018-12-04T07:49:50.251Z,29.87
2018-12-04T07:52:19.248Z,30.08
2018-12-04T07:54:48.265Z,30.11
2018-12-04T07:57:17.340Z,29.53
2018-12-04T07:59:46.541Z,30.24
2018-12-04T08:02:15.570Z,30.27
2018-12-04T08:04:45.319Z,29.79
2018-12-04T08:07:14.503Z,29.81
2018-12-04T08:09:43.770Z,29.96
2018-12-04T08:12:12.767Z,30.10
2018-12-04T08:14:41.732Z,30.18
2018-12-04T08:17:10.780Z,29.99
2018-12-04T08:19:39.887Z,30.01
2018-12-04T08:22:09.020Z,30.47
2018-12-04T08:24:38.097Z,30.50
2018-12-04T08:27:07.216Z,30.40
2018-12-04T08:29:36.304Z,29.98
2018-12-04T08:32:05.448Z,29.67
2018-12-04T08:34:34.676Z,30.14
2018-12-04T08:37:03.604Z,29.44
2018-12-04T08:39:32.754Z,30.03
2018-12-04T08:42:01.784Z,29.99
2018-12-04T08:44:30.985Z,29.93
2018-12-04T08:47:00.264Z,30.60
2018-12-04T08:49:29.544Z,31.03
2018-12-04T08:51:58.720Z,31.03
2018-12-04T08:54:27.754Z,30.55
2018-12-04T08:56:56.814Z,30.23
2018-12-04T08:59:25.892Z,30.50
2018-12-04T09:01:54.980Z,30.62
2018-12-04T09:04:24.177Z,30.43
2018-12-04T09:06:53.228Z,30.72
2018-12-04T09:09:22.421Z,31.07
2018-12-04T09:11:51.525Z,31.08
2018-12-04T09:14:20.583Z,31.35
2018-12-04T09:16:49.579Z,31.08
2018-12-04T09:19:18.640Z,31.97
2018-12-04T09:21:47.830Z,32.62
2018-12-04T09:24:16.993Z,32.61
2018-12-04T09:26:45.933Z,33.20
2018-12-04T09:29:14.693Z,32.15
2018-12-04T09:31:44.168Z,34.60
2018-12-04T09:34:13.304Z,33.33
2018-12-04T09:36:42.596Z,33.60
2018-12-04T09:39:11.659Z,35.26
2018-12-04T09:41:40.695Z,34.50
2018-12-04T09:44:09.768Z,32.85
2018-12-04T09:46:38.828Z,33.56
2018-12-04T09:49:08.135Z,33.83
2018-12-04T09:51:37.143Z,33.63
2018-12-04T09:54:06.169Z,33.69
2018-12-04T09:56:35.127Z,33.76
2018-12-04T09:59:04.138Z,33.53
2018-12-04T10:01:33.166Z,33.91
2018-12-04T10:04:02.403Z,33.98
2018-12-04T10:06:31.383Z,33.98
2018-12-04T10:09:00.383Z,34.38
2018-12-04T10:11:29.391Z,34.28
2018-12-04T10:13:58.576Z,33.70
2018-12-04T10:16:27.562Z,34.56
2018-12-04T10:18:56.527Z,34.03
2018-12-04T10:21:25.659Z,34.23
2018-12-04T10:23:54.714Z,33.99
2018-12-04T10:26:23.485Z,36.45
2018-12-04T10:28:52.465Z,34.97
2018-12-04T10:31:21.445Z,35.28
2018-12-04T10:33:50.571Z,35.45
2018-12-04T10:36:19.663Z,35.34
2018-12-04T10:38:48.638Z,35.04
2018-12-04T10:41:17.606Z,35.72
2018-12-04T10:43:46.836Z,38.46
2018-12-04T10:46:15.810Z,36.73
2018-12-04T10:48:44.840Z,35.58
2018-12-04T10:51:14.003Z,36.11
2018-12-04T10:53:43.152Z,36.30
2018-12-04T10:56:12.111Z,36.28
2018-12-04T10:58:41.118Z,36.86
2018-12-04T11:01:15.086Z,35.92
2018-12-04T11:03:44.196Z,36.32
2018-12-04T11:06:13.395Z,36.36
2018-12-04T11:08:42.507Z,36.70
2018-12-04T11:11:11.488Z,36.89
2018-12-04T11:13:40.587Z,37.09
2018-12-04T11:16:09.614Z,39.88
2018-12-04T11:18:38.723Z,37.90
2018-12-04T11:21:07.592Z,36.66
2018-12-04T11:23:36.628Z,36.59
2018-12-04T11:26:05.820Z,38.10
2018-12-04T11:28:34.963Z,37.51
2018-12-04T11:31:04.096Z,38.81
2018-12-04T11:33:32.859Z,40.28
2018-12-04T11:36:02.787Z,39.85
2018-12-04T11:38:31.901Z,38.06
2018-12-04T11:41:00.803Z,37.05
2018-12-04T11:43:29.807Z,38.04
2018-12-04T11:45:58.995Z,41.35
2018-12-04T11:48:28.048Z,41.59
2018-12-04T11:51:00.227Z,39.37
2018-12-04T11:53:28.137Z,40.30
2018-12-04T11:55:57.220Z,38.61
2018-12-04T11:58:26.220Z,38.23
2018-12-04T12:00:55.488Z,38.13
2018-12-04T12:03:24.620Z,38.45
2018-12-04T12:05:53.664Z,39.71
2018-12-04T12:08:22.821Z,40.78
2018-12-04T12:10:52.018Z,41.81
2018-12-04T12:13:21.042Z,42.58
2018-12-04T12:15:50.136Z,41.53
2018-12-04T12:18:19.176Z,39.13
2018-12-04T12:20:48.195Z,39.41
2018-12-04T12:23:17.233Z,39.24
2018-12-04T12:25:46.393Z,40.48
2018-12-04T12:28:15.492Z,42.47
2018-12-04T12:30:44.570Z,42.61
2018-12-04T12:33:13.681Z,40.71
2018-12-04T12:35:42.572Z,40.81
2018-12-04T12:38:11.568Z,39.77
2018-12-04T12:40:40.848Z,39.88
2018-12-04T12:43:09.965Z,39.55
2018-12-04T12:45:39.060Z,40.63
2018-12-04T12:48:08.155Z,41.39
2018-12-04T12:50:37.186Z,41.06
2018-12-04T12:53:06.137Z,41.11
2018-12-04T12:55:35.137Z,41.11
2018-12-04T12:58:04.148Z,41.29
2018-12-04T13:00:33.175Z,40.82
2018-12-04T13:03:02.183Z,41.06
2018-12-04T13:05:31.293Z,40.36
2018-12-04T13:08:00.288Z,39.93
2018-12-04T13:10:29.184Z,40.61
2018-12-04T13:12:58.292Z,40.50
2018-12-04T13:15:27.382Z,40.84
2018-12-04T13:17:56.386Z,40.20
2018-12-04T13:20:25.405Z,39.94
2018-12-04T13:22:54.489Z,41.84
2018-12-04T13:25:23.572Z,38.75
2018-12-04T13:27:52.580Z,38.99
2018-12-04T13:30:21.585Z,39.73
2018-12-04T13:32:50.659Z,39.45
2018-12-04T13:35:19.660Z,39.11
2018-12-04T13:37:48.672Z,40.51
2018-12-04T13:40:17.866Z,40.15
2018-12-04T13:42:47.156Z,39.43
2018-12-04T13:45:16.255Z,39.27
2018-12-04T13:47:45.428Z,39.25
2018-12-04T13:50:14.416Z,40.21
2018-12-04T13:52:43.581Z,41.38
2018-12-04T13:55:12.636Z,41.66
2018-12-04T13:57:41.483Z,39.75
2018-12-04T14:00:10.688Z,39.97
2018-12-04T14:02:39.706Z,40.84
2018-12-04T14:05:09.273Z,39.57
2018-12-04T14:07:38.066Z,40.05
2018-12-04T14:10:08.885Z,39.63
2018-12-04T14:12:38.178Z,40.57
2018-12-04T14:15:07.385Z,40.11
2018-12-04T14:17:36.548Z,39.57
2018-12-04T14:20:06.659Z,39.96
2018-12-04T14:22:35.927Z,40.68
2018-12-04T14:25:05.054Z,40.44
2018-12-04T14:27:34.268Z,40.89
2018-12-04T14:30:03.408Z,41.35
2018-12-04T14:32:32.568Z,40.86
2018-12-04T14:35:01.661Z,39.80
2018-12-04T14:37:30.698Z,40.44
2018-12-04T14:39:59.965Z,40.39
2018-12-04T14:42:29.056Z,39.68
2018-12-04T14:44:58.150Z,40.64
2018-12-04T14:47:27.279Z,42.11
2018-12-04T14:49:56.573Z,40.50
2018-12-04T14:52:25.543Z,40.96
2018-12-04T14:54:54.668Z,40.72
2018-12-04T14:57:23.750Z,40.17
2018-12-04T14:59:52.848Z,40.06
2018-12-04T15:02:21.822Z,41.12
2018-12-04T15:04:50.965Z,41.85
2018-12-04T15:07:20.005Z,41.02
2018-12-04T15:09:48.880Z,41.11
2018-12-04T15:12:17.992Z,40.43
2018-12-04T15:14:47.099Z,40.60
2018-12-04T15:17:16.219Z,40.56
2018-12-04T15:19:45.372Z,41.55
2018-12-04T15:22:14.612Z,41.86
2018-12-04T15:24:43.590Z,41.15
2018-12-04T15:27:12.901Z,40.63
2018-12-04T15:29:42.092Z,41.18
2018-12-04T15:32:11.343Z,41.07
2018-12-04T15:34:40.423Z,40.64
2018-12-04T15:37:09.487Z,41.03
2018-12-04T15:39:38.612Z,42.38
2018-12-04T15:42:07.823Z,41.49
2018-12-04T15:44:37.014Z,41.18
2018-12-04T15:47:06.179Z,40.77
2018-12-04T15:49:35.176Z,40.83
2018-12-04T15:52:04.316Z,41.17
2018-12-04T15:54:33.361Z,41.42
2018-12-04T15:57:02.411Z,41.72
2018-12-04T15:59:31.425Z,42.15
2018-12-04T16:02:00.444Z,41.35
2018-12-04T16:04:29.431Z,40.82
2018-12-04T16:06:58.640Z,40.78
2018-12-04T16:09:27.737Z,40.86
2018-12-04T16:11:56.741Z,40.44
2018-12-04T16:14:25.829Z,40.68
2018-12-04T16:16:55.030Z,40.91
2018-12-04T16:19:24.145Z,41.05
2018-12-04T16:21:53.387Z,40.50
2018-12-04T16:24:22.704Z,40.24
2018-12-04T16:26:52.054Z,39.83
2018-12-04T16:29:21.204Z,39.78
2018-12-04T16:31:50.439Z,40.13
2018-12-04T16:34:19.620Z,40.02
2018-12-04T16:36:48.816Z,39.81
2018-12-04T16:39:18.091Z,39.61
2018-12-04T16:41:47.103Z,39.53
2018-12-04T16:44:16.211Z,39.35
2018-12-04T16:46:45.509Z,39.25
2018-12-04T16:49:14.500Z,38.89
2018-12-04T16:51:43.708Z,38.92
2018-12-04T16:54:12.799Z,38.91
2018-12-04T16:56:42.013Z,38.77
2018-12-04T16:59:11.202Z,38.99
2018-12-04T17:01:40.211Z,38.24
2018-12-04T17:04:09.388Z,38.38
2018-12-04T17:06:38.509Z,37.83
2018-12-04T17:09:08.591Z,37.76
2018-12-04T17:11:37.699Z,37.86
2018-12-04T17:14:06.785Z,37.79
2018-12-04T17:16:36.137Z,38.06
2018-12-04T17:19:05.556Z,37.65
2018-12-04T17:21:34.712Z,37.41
2018-12-04T17:24:03.811Z,36.56
2018-12-04T17:26:32.909Z,37.38
2018-12-04T17:29:01.995Z,37.18
2018-12-04T17:31:30.972Z,37.24
2018-12-04T17:33:59.987Z,37.02
2018-12-04T17:36:28.964Z,37.32
2018-12-04T17:38:58.085Z,37.73
2018-12-04T17:41:27.075Z,37.42
2018-12-04T17:43:56.324Z,37.92
2018-12-04T17:46:25.360Z,37.43
2018-12-04T17:48:54.469Z,37.37
2018-12-04T17:51:23.665Z,37.55
2018-12-04T17:53:52.897Z,38.08
2018-12-04T17:56:22.085Z,37.59
2018-12-04T17:58:51.155Z,37.25
2018-12-04T18:01:20.217Z,37.64
2018-12-04T18:03:49.500Z,37.29
2018-12-04T18:06:18.801Z,37.44
2018-12-04T18:08:47.932Z,37.00
2018-12-04T18:11:17.052Z,36.97
2018-12-04T18:13:46.137Z,37.44
2018-12-04T18:16:15.252Z,37.48
2018-12-04T18:18:44.239Z,37.35
2018-12-04T18:21:13.526Z,37.15
2018-12-04T18:23:42.696Z,37.64
2018-12-04T18:26:11.723Z,37.53
2018-12-04T18:28:40.713Z,37.71
2018-12-04T18:31:09.829Z,37.55
2018-12-04T18:33:38.940Z,36.57
2018-12-04T18:36:07.985Z,36.51
2018-12-04T18:38:37.128Z,37.05
2018-12-04T18:41:06.293Z,37.34
2018-12-04T18:43:35.719Z,37.51
2018-12-04T18:46:04.895Z,37.16
2018-12-04T18:48:34.275Z,37.47
2018-12-04T18:51:03.236Z,37.39
2018-12-04T18:53:32.640Z,37.53
2018-12-04T18:56:03.029Z,37.28
2018-12-04T18:58:32.073Z,37.23
2018-12-04T19:01:01.161Z,37.48
2018-12-04T19:03:30.136Z,37.29
2018-12-04T19:05:59.240Z,37.29
2018-12-04T19:08:33.232Z,37.92
2018-12-04T19:11:02.350Z,37.23
2018-12-04T19:13:31.459Z,37.28
2018-12-04T19:16:00.540Z,37.92
2018-12-04T19:18:29.549Z,37.75
2018-12-04T19:20:58.624Z,37.41
2018-12-04T19:23:27.633Z,37.85
2018-12-04T19:25:56.728Z,37.95
2018-12-04T19:28:25.906Z,37.76
2018-12-04T19:30:54.909Z,37.60
2018-12-04T19:33:24.011Z,37.22
2018-12-04T19:35:53.020Z,37.65
2018-12-04T19:38:22.070Z,37.29
2018-12-04T19:40:51.199Z,36.84
2018-12-04T19:43:20.332Z,36.96
2018-12-04T19:45:49.556Z,37.20
2018-12-04T19:48:18.618Z,36.92
2018-12-04T19:50:47.676Z,37.29
2018-12-04T19:53:16.672Z,37.27
2018-12-04T19:55:45.649Z,37.47
2018-12-04T19:58:14.726Z,37.66
2018-12-04T20:00:43.745Z,37.21
2018-12-04T20:03:12.955Z,36.74
2018-12-04T20:05:41.953Z,37.14
2018-12-04T20:08:11.044Z,36.87
2018-12-04T20:10:40.199Z,36.93
2018-12-04T20:13:09.262Z,37.11
2018-12-04T20:15:38.304Z,37.19
2018-12-04T20:18:07.304Z,36.70
2018-12-04T20:20:36.321Z,37.02
2018-12-04T20:23:05.415Z,36.70
2018-12-04T20:25:34.404Z,37.42
2018-12-04T20:28:04.829Z,37.06
2018-12-04T20:30:34.240Z,37.31
2018-12-04T20:33:03.243Z,36.97
2018-12-04T20:35:32.191Z,37.13
2018-12-04T20:38:01.311Z,36.96
2018-12-04T20:40:31.684Z,36.86
2018-12-04T20:43:01.140Z,36.83
2018-12-04T20:45:30.124Z,36.41
2018-12-04T20:47:59.123Z,36.84
2018-12-04T20:50:28.216Z,36.67
2018-12-04T20:52:57.315Z,36.37
2018-12-04T20:55:26.324Z,36.84
2018-12-04T20:57:55.352Z,36.73
2018-12-04T21:00:24.295Z,36.72
2018-12-04T21:02:53.315Z,36.63
2018-12-04T21:05:22.302Z,36.28
2018-12-04T21:07:51.396Z,36.94
2018-12-04T21:10:20.500Z,36.79
2018-12-04T21:12:49.488Z,36.90
2018-12-04T21:15:18.441Z,36.27
2018-12-04T21:17:47.530Z,36.53
2018-12-04T21:20:16.522Z,36.08
2018-12-04T21:22:45.529Z,36.16
2018-12-04T21:25:14.619Z,36.80
2018-12-04T21:27:48.799Z,36.86
2018-12-04T21:30:22.657Z,36.30
2018-12-04T21:32:56.861Z,36.19
2018-12-04T21:35:31.032Z,36.28
2018-12-04T21:38:04.982Z,36.28
2018-12-04T21:40:39.034Z,35.60
2018-12-04T21:43:13.186Z,36.17
2018-12-04T21:45:47.190Z,36.28
2018-12-04T21:48:16.173Z,36.60
2018-12-04T21:50:45.144Z,36.26
2018-12-04T21:53:14.156Z,36.46
2018-12-04T21:55:43.215Z,36.22
2018-12-04T21:58:12.252Z,36.44
2018-12-04T22:00:41.240Z,36.33
2018-12-04T22:03:10.242Z,36.43
2018-12-04T22:05:39.284Z,36.56
2018-12-04T22:08:08.372Z,36.90
2018-12-04T22:10:37.475Z,36.12
2018-12-04T22:13:06.576Z,36.16
2018-12-04T22:15:35.592Z,36.19
2018-12-04T22:18:04.608Z,36.22
2018-12-04T22:20:33.863Z,35.70
2018-12-04T22:23:03.012Z,35.96
2018-12-04T22:25:32.041Z,36.61
2018-12-04T22:28:01.185Z,36.21
2018-12-04T22:30:30.296Z,36.08
2018-12-04T22:32:59.373Z,36.40
2018-12-04T22:35:28.488Z,35.82
2018-12-04T22:37:57.475Z,35.87
2018-12-04T22:40:26.563Z,35.51
2018-12-04T22:42:55.694Z,35.84
2018-12-04T22:45:26.040Z,36.39
2018-12-04T22:47:55.788Z,36.14
2018-12-04T22:50:24.809Z,36.39
2018-12-04T22:52:53.969Z,35.92
2018-12-04T22:55:23.410Z,36.47
2018-12-04T22:57:52.398Z,36.30
2018-12-04T23:00:36.357Z,36.28
2018-12-04T23:03:05.497Z,35.97
2018-12-04T23:05:34.648Z,36.06
2018-12-04T23:08:03.696Z,36.69
2018-12-04T23:10:32.715Z,36.46
2018-12-04T23:13:01.699Z,37.03
2018-12-04T23:15:30.800Z,36.30
2018-12-04T23:17:59.908Z,36.69
2018-12-04T23:20:28.924Z,36.70
2018-12-04T23:22:57.890Z,36.82
2018-12-04T23:25:26.984Z,36.72
2018-12-04T23:27:55.972Z,36.94
2018-12-04T23:30:25.024Z,36.54
2018-12-04T23:32:54.064Z,36.61
2018-12-04T23:35:23.179Z,36.59
2018-12-04T23:37:52.182Z,36.54
2018-12-04T23:40:21.147Z,36.46
2018-12-04T23:42:50.145Z,36.62
2018-12-04T23:45:19.242Z,35.75
2018-12-04T23:47:48.232Z,35.79
2018-12-04T23:50:17.226Z,35.65
2018-12-04T23:52:46.159Z,35.90
2018-12-04T23:55:15.155Z,36.05
2018-12-04T23:57:44.242Z,36.45
